Time;durP1;ratioP1;P1;durP2;ratioP2;P2;SDS_P1;SDS_P2;PMS_P1;PMS_P2;Temp;Humidity;BMP_temperature;BMP_pressure;BME280_temperature;BME280_humidity;BME280_pressure;Samples;Min_cycle;Max_cycle;Signal;HPM_P1;HPM_P2
2023/03/06 00:00:25;;;;;;;4.50;2.47;;;22.00;46.50;;;;;;4985118;28;20337;-64
2023/03/06 00:02:51;;;;;;;3.58;2.38;;;21.90;46.50;;;;;;4982387;28;20081;-64
2023/03/06 00:05:17;;;;;;;3.67;2.30;;;21.90;46.50;;;;;;4983709;28;20494;-65
2023/03/06 00:07:43;;;;;;;4.10;2.50;;;21.90;46.50;;;;;;4986355;28;20069;-65
2023/03/06 00:10:20;;;;;;;3.78;2.20;;;21.90;46.60;;;;;;4981867;28;20030;-65
2023/03/06 00:12:45;;;;;;;3.97;2.40;;;21.80;46.50;;;;;;4983566;28;20553;-65
2023/03/06 00:15:12;;;;;;;3.60;2.15;;;21.90;46.70;;;;;;4983223;28;20035;-64
2023/03/06 00:17:38;;;;;;;3.97;2.35;;;21.80;46.60;;;;;;4982208;28;20042;-63
2023/03/06 00:20:05;;;;;;;4.65;2.30;;;21.80;46.60;;;;;;4990925;28;20443;-64
2023/03/06 00:22:31;;;;;;;3.90;2.30;;;21.80;46.60;;;;;;4981948;28;20030;-63
2023/03/06 00:24:57;;;;;;;3.08;2.10;;;21.80;46.60;;;;;;4983046;28;20048;-63
2023/03/06 00:27:25;;;;;;;4.38;2.47;;;21.80;46.60;;;;;;4982802;28;20030;-63
2023/03/06 00:29:54;;;;;;;3.85;2.30;;;21.70;46.60;;;;;;4985203;28;20032;-64
2023/03/06 00:32:19;;;;;;;;;;;21.70;46.60;;;;;;4983109;28;20034;-64
2023/03/06 00:34:48;;;;;;;3.58;2.20;;;21.70;46.60;;;;;;4985096;28;20368;-64
2023/03/06 00:37:14;;;;;;;3.67;2.25;;;21.70;46.70;;;;;;4996905;28;20402;-64
2023/03/06 00:39:40;;;;;;;3.72;2.40;;;21.70;46.70;;;;;;4983008;28;20030;-64
2023/03/06 00:42:05;;;;;;;3.53;2.30;;;21.60;46.60;;;;;;4982662;28;20030;-64
2023/03/06 00:44:31;;;;;;;4.10;2.20;;;21.60;46.70;;;;;;4984191;28;20062;-64
2023/03/06 00:46:57;;;;;;;3.78;2.33;;;21.60;46.70;;;;;;4983056;28;20033;-65
2023/03/06 00:49:22;;;;;;;3.30;2.30;;;21.60;46.70;;;;;;4984408;28;20030;-64
2023/03/06 00:51:48;;;;;;;3.67;2.40;;;21.60;46.70;;;;;;4982995;28;20522;-63
2023/03/06 00:54:13;;;;;;;3.70;2.28;;;21.60;46.70;;;;;;4983840;28;20027;-64
2023/03/06 00:56:39;;;;;;;3.45;2.20;;;21.60;46.70;;;;;;4976411;28;20030;-63
2023/03/06 00:59:05;;;;;;;4.28;2.40;;;21.50;46.70;;;;;;4982885;28;20026;-64
2023/03/06 01:01:30;;;;;;;3.67;2.20;;;21.50;46.70;;;;;;4984996;28;20030;-64
2023/03/06 01:03:56;;;;;;;3.05;2.10;;;21.50;46.80;;;;;;4982236;28;20022;-64
2023/03/06 01:06:22;;;;;;;3.03;2.10;;;21.50;46.80;;;;;;4984586;28;20022;-63
2023/03/06 01:08:48;;;;;;;3.42;2.13;;;21.50;46.80;;;;;;4982394;28;20089;-63
2023/03/06 01:11:14;;;;;;;2.67;1.95;;;21.50;46.80;;;;;;4980601;28;20039;-64
2023/03/06 01:13:39;;;;;;;3.30;2.05;;;21.50;46.80;;;;;;4980709;28;20117;-64
2023/03/06 01:16:11;;;;;;;3.55;2.17;;;21.50;46.80;;;;;;4980281;28;20027;-64
2023/03/06 01:18:36;;;;;;;3.00;2.10;;;21.50;46.80;;;;;;4984267;28;20041;-64
2023/03/06 01:21:03;;;;;;;3.55;2.28;;;21.40;46.80;;;;;;4988153;28;20030;-64
2023/03/06 01:23:29;;;;;;;3.25;2.13;;;21.40;46.80;;;;;;4982003;28;20022;-64
2023/03/06 01:25:55;;;;;;;3.55;2.10;;;21.40;46.80;;;;;;4981347;28;20088;-64
2023/03/06 01:28:20;;;;;;;3.22;1.95;;;21.40;46.90;;;;;;4981454;28;20027;-64
2023/03/06 01:30:46;;;;;;;3.35;2.08;;;21.40;46.90;;;;;;4979658;28;20039;-64
2023/03/06 01:33:12;;;;;;;3.00;2.03;;;21.40;46.80;;;;;;4983562;28;20504;-64
2023/03/06 01:35:38;;;;;;;3.35;2.10;;;21.40;46.90;;;;;;4982761;28;20054;-64
2023/03/06 01:38:03;;;;;;;3.30;2.10;;;21.30;46.80;;;;;;4983100;28;20058;-64
2023/03/06 01:40:33;;;;;;;2.50;1.73;;;21.40;46.90;;;;;;4984518;28;20433;-64
2023/03/06 01:43:23;;;;;;;2.80;1.80;;;21.30;46.90;;;;;;4981987;28;20049;-64
2023/03/06 01:45:48;;;;;;;;;;;21.30;46.90;;;;;;4982429;28;20026;-64
2023/03/06 01:48:14;;;;;;;3.40;2.17;;;21.30;46.90;;;;;;4982134;28;19912;-64
2023/03/06 01:50:40;;;;;;;3.90;2.15;;;21.30;46.90;;;;;;4984025;28;20109;-64
2023/03/06 01:53:06;;;;;;;3.10;1.95;;;21.30;46.90;;;;;;4982204;28;20032;-64
2023/03/06 01:55:33;;;;;;;3.03;2.00;;;21.30;46.90;;;;;;4980998;28;20393;-64
2023/03/06 01:58:03;;;;;;;3.22;2.00;;;21.20;46.80;;;;;;4981682;28;20023;-64
2023/03/06 02:00:29;;;;;;;4.00;2.10;;;21.30;46.90;;;;;;4983817;28;20561;-63
2023/03/06 02:03:09;;;;;;;3.30;2.10;;;21.20;46.90;;;;;;4983270;28;20393;-63
2023/03/06 02:05:35;;;;;;;;;;;21.20;46.90;;;;;;4982363;28;20030;-63
2023/03/06 02:08:02;;;;;;;2.80;1.95;;;21.20;46.90;;;;;;4984505;28;19960;-63
2023/03/06 02:10:29;;;;;;;3.33;2.10;;;21.20;46.90;;;;;;4988000;28;20549;-64
2023/03/06 02:12:54;;;;;;;2.67;1.88;;;21.20;46.90;;;;;;4984474;28;20035;-64
2023/03/06 02:15:23;;;;;;;3.53;1.83;;;21.20;46.90;;;;;;4984708;28;20497;-64
2023/03/06 02:17:50;;;;;;;2.93;1.87;;;21.10;47.40;;;;;;5002795;28;20026;-64
2023/03/06 02:20:42;;;;;;;3.28;2.00;;;21.20;47.00;;;;;;4987690;28;20054;-63
2023/03/06 02:23:13;;;;;;;3.50;2.00;;;21.10;46.90;;;;;;4985046;28;20049;-64
2023/03/06 02:25:45;;;;;;;3.33;2.13;;;21.10;47.00;;;;;;4986040;28;20081;-64
2023/03/06 02:28:17;;;;;;;2.97;1.92;;;21.10;46.90;;;;;;4986454;28;20494;-63
2023/03/06 02:30:44;;;;;;;2.72;2.00;;;21.10;46.90;;;;;;4983904;28;20087;-63
2023/03/06 02:33:13;;;;;;;2.90;1.88;;;21.10;46.90;;;;;;4986207;28;20026;-63
2023/03/06 02:35:42;;;;;;;3.00;2.00;;;21.10;47.00;;;;;;4988273;28;20035;-63
2023/03/06 02:38:12;;;;;;;2.53;1.80;;;21.10;47.00;;;;;;4985601;28;20461;-64
2023/03/06 02:40:40;;;;;;;2.67;1.80;;;21.00;47.00;;;;;;4986711;28;20550;-63
2023/03/06 02:43:07;;;;;;;2.95;1.70;;;21.00;47.00;;;;;;4984703;28;20033;-65
2023/03/06 02:45:43;;;;;;;2.65;1.67;;;21.10;47.00;;;;;;4988841;28;20462;-64
2023/03/06 02:48:09;;;;;;;3.33;2.00;;;21.00;47.00;;;;;;4985564;28;20447;-64
2023/03/06 02:50:34;;;;;;;2.67;1.70;;;21.00;47.00;;;;;;4986290;28;20026;-64
2023/03/06 02:53:00;;;;;;;3.03;1.80;;;21.00;47.50;;;;;;4984466;28;20034;-63
2023/03/06 02:55:26;;;;;;;2.50;1.60;;;21.00;47.00;;;;;;4987368;28;20033;-64
2023/03/06 02:57:51;;;;;;;3.10;1.88;;;21.00;47.00;;;;;;4984126;28;20054;-64
2023/03/06 03:00:18;;;;;;;2.83;1.65;;;21.00;47.00;;;;;;4986146;28;20025;-64
2023/03/06 03:02:44;;;;;;;2.40;1.60;;;21.00;47.00;;;;;;4986976;28;20475;-64
2023/03/06 03:05:13;;;;;;;2.58;1.70;;;21.00;47.00;;;;;;4986974;28;20031;-63
2023/03/06 03:07:39;;;;;;;2.38;1.70;;;21.00;47.00;;;;;;4985886;28;20041;-64
2023/03/06 03:10:05;;;;;;;2.35;1.63;;;21.00;47.10;;;;;;4982414;28;20030;-64
2023/03/06 03:12:31;;;;;;;2.78;1.88;;;20.90;47.00;;;;;;4983314;28;20318;-64
2023/03/06 03:14:56;;;;;;;2.60;1.70;;;20.90;47.00;;;;;;4985060;28;20031;-63
2023/03/06 03:17:23;;;;;;;2.90;1.77;;;20.90;47.00;;;;;;4990905;28;20030;-63
2023/03/06 03:19:48;;;;;;;3.20;1.70;;;20.90;47.00;;;;;;4983570;28;20110;-64
2023/03/06 03:22:15;;;;;;;2.65;1.60;;;20.90;47.10;;;;;;4982931;28;20114;-63
2023/03/06 03:24:41;;;;;;;2.80;2.00;;;20.90;47.60;;;;;;4982587;28;20421;-63
2023/03/06 03:27:07;;;;;;;2.90;1.90;;;20.90;47.20;;;;;;4987089;28;20037;-62
2023/03/06 03:29:33;;;;;;;2.83;1.70;;;20.90;47.10;;;;;;4984929;28;20080;-64
2023/03/06 03:31:58;;;;;;;3.00;1.70;;;20.90;47.10;;;;;;4986860;28;20409;-64
2023/03/06 03:34:24;;;;;;;2.85;1.80;;;20.90;47.10;;;;;;4986036;28;20023;-64
2023/03/06 03:36:50;;;;;;;2.67;1.60;;;20.80;47.10;;;;;;4983142;28;20109;-64
2023/03/06 03:39:15;;;;;;;3.03;1.67;;;20.90;47.10;;;;;;4983851;28;20233;-64
2023/03/06 03:41:41;;;;;;;2.50;1.70;;;20.90;47.10;;;;;;4988054;28;20022;-64
2023/03/06 03:44:07;;;;;;;2.65;1.70;;;20.90;47.10;;;;;;4985681;28;20041;-64
2023/03/06 03:46:33;;;;;;;3.00;1.80;;;20.80;47.10;;;;;;4983392;28;20062;-64
2023/03/06 03:48:59;;;;;;;2.40;1.50;;;20.80;47.10;;;;;;4984878;28;20032;-65
2023/03/06 03:51:25;;;;;;;2.78;1.80;;;20.80;47.10;;;;;;4985103;28;20026;-64
2023/03/06 03:53:50;;;;;;;2.40;1.63;;;20.80;47.10;;;;;;4983554;28;20041;-64
2023/03/06 03:56:16;;;;;;;2.85;1.65;;;20.80;47.20;;;;;;4984992;28;20369;-64
2023/03/06 03:58:42;;;;;;;2.67;1.70;;;20.80;47.20;;;;;;4985614;28;20391;-64
2023/03/06 04:01:08;;;;;;;2.30;1.70;;;20.80;47.10;;;;;;4983864;28;20086;-64
2023/03/06 04:03:33;;;;;;;2.67;1.65;;;20.80;47.20;;;;;;4982770;28;20027;-64
2023/03/06 04:05:59;;;;;;;2.40;1.60;;;20.80;47.20;;;;;;4985353;28;20208;-63
2023/03/06 04:08:26;;;;;;;2.88;1.80;;;20.80;47.70;;;;;;4983704;28;20030;-64
2023/03/06 04:10:52;;;;;;;2.25;1.70;;;20.80;47.20;;;;;;4989576;28;20031;-65
2023/03/06 04:13:19;;;;;;;2.28;1.42;;;20.80;47.20;;;;;;4984535;28;20070;-64
2023/03/06 04:15:46;;;;;;;2.17;1.50;;;20.80;47.30;;;;;;4984567;28;20029;-64
2023/03/06 04:18:15;;;;;;;3.08;1.90;;;20.80;47.20;;;;;;4986462;28;20387;-64
2023/03/06 04:20:41;;;;;;;2.70;1.65;;;20.80;47.20;;;;;;4982839;28;20019;-64
2023/03/06 04:23:06;;;;;;;2.60;1.67;;;20.70;47.20;;;;;;4982080;28;20023;-63
2023/03/06 04:25:32;;;;;;;2.80;1.70;;;20.70;47.70;;;;;;4983167;28;20058;-63
2023/03/06 04:27:58;;;;;;;3.08;1.90;;;20.70;47.20;;;;;;4982243;28;20026;-63
2023/03/06 04:30:23;;;;;;;2.58;1.67;;;20.70;47.20;;;;;;4985710;28;20042;-62
2023/03/06 04:32:49;;;;;;;2.70;1.50;;;20.70;47.20;;;;;;4981478;28;20344;-64
2023/03/06 04:35:15;;;;;;;2.35;1.52;;;20.70;47.20;;;;;;4984694;28;20513;-64
2023/03/06 04:37:42;;;;;;;2.53;1.60;;;20.70;47.20;;;;;;4983287;28;20050;-64
2023/03/06 04:40:16;;;;;;;2.47;1.50;;;20.70;47.30;;;;;;4983607;28;20458;-64
2023/03/06 04:42:41;;;;;;;2.30;1.60;;;20.70;47.30;;;;;;4982474;28;20402;-65
2023/03/06 04:45:07;;;;;;;2.58;1.70;;;20.70;47.30;;;;;;4984087;28;20026;-64
2023/03/06 04:47:33;;;;;;;2.50;1.60;;;20.70;47.30;;;;;;4981571;28;20031;-64
2023/03/06 04:49:59;;;;;;;2.50;1.50;;;20.70;47.30;;;;;;4982675;28;20034;-64
2023/03/06 04:52:24;;;;;;;2.40;1.70;;;20.70;47.30;;;;;;4989691;28;20367;-64
2023/03/06 04:54:50;;;;;;;2.42;1.75;;;20.70;47.30;;;;;;4983014;28;20089;-64
2023/03/06 04:57:15;;;;;;;2.40;1.60;;;20.70;47.30;;;;;;4982485;28;20475;-63
2023/03/06 04:59:41;;;;;;;2.10;1.35;;;20.70;47.30;;;;;;4982983;28;20176;-64
2023/03/06 05:02:07;;;;;;;2.63;1.75;;;20.60;47.30;;;;;;4984421;28;20025;-64
2023/03/06 05:04:32;;;;;;;2.67;1.50;;;20.70;47.30;;;;;;4982448;28;20399;-64
2023/03/06 05:06:58;;;;;;;2.33;1.70;;;20.60;47.80;;;;;;4981282;28;20475;-64
2023/03/06 05:09:24;;;;;;;2.33;1.40;;;20.60;47.30;;;;;;4983147;28;20042;-63
2023/03/06 05:11:49;;;;;;;2.63;1.60;;;20.60;47.30;;;;;;4979537;28;20035;-64
2023/03/06 05:14:15;;;;;;;2.58;1.83;;;20.60;47.30;;;;;;4984377;28;20504;-63
2023/03/06 05:16:40;;;;;;;2.28;1.58;;;20.60;47.30;;;;;;4981161;28;20104;-63
2023/03/06 05:19:06;;;;;;;2.17;1.50;;;20.60;47.30;;;;;;4983628;28;20459;-63
2023/03/06 05:21:31;;;;;;;2.53;1.70;;;20.60;47.40;;;;;;4980860;28;20037;-63
2023/03/06 05:23:57;;;;;;;2.13;1.30;;;20.60;47.40;;;;;;4984595;28;20034;-64
2023/03/06 05:26:23;;;;;;;2.53;1.52;;;20.60;47.40;;;;;;4982716;28;20042;-64
2023/03/06 05:28:48;;;;;;;2.45;1.65;;;20.60;47.40;;;;;;4981096;28;20026;-64
2023/03/06 05:31:15;;;;;;;2.00;1.40;;;20.60;47.40;;;;;;4981297;28;20050;-63
2023/03/06 05:33:40;;;;;;;2.30;1.52;;;20.60;47.40;;;;;;4982724;28;20033;-63
2023/03/06 05:36:08;;;;;;;1.90;1.40;;;20.60;47.40;;;;;;4981727;28;20161;-64
2023/03/06 05:38:34;;;;;;;2.63;1.70;;;20.60;47.50;;;;;;4982474;28;20552;-63
2023/03/06 05:40:59;;;;;;;2.25;1.50;;;20.60;47.50;;;;;;4981978;28;20101;-63
2023/03/06 05:43:25;;;;;;;2.42;1.63;;;20.60;47.50;;;;;;4981165;28;20076;-65
2023/03/06 05:46:00;;;;;;;2.20;1.50;;;20.60;47.50;;;;;;4980645;28;20318;-63
2023/03/06 05:48:25;;;;;;;2.20;1.40;;;20.60;47.60;;;;;;4982703;28;20030;-63
2023/03/06 05:50:58;;;;;;;2.55;1.63;;;20.50;47.60;;;;;;4983016;28;20398;-63
2023/03/06 05:53:25;;;;;;;2.42;1.55;;;20.50;47.80;;;;;;4979985;28;20030;-63
2023/03/06 05:56:02;;;;;;;2.22;1.33;;;20.50;47.90;;;;;;4978524;28;20026;-63
2023/03/06 05:58:28;;;;;;;2.30;1.40;;;20.50;48.00;;;;;;4979209;28;20030;-63
2023/03/06 06:00:54;;;;;;;3.08;1.73;;;20.50;48.10;;;;;;4979947;28;20542;-63
2023/03/06 06:03:20;;;;;;;3.00;1.50;;;20.50;48.20;;;;;;4988027;28;20036;-63
2023/03/06 06:05:46;;;;;;;2.67;1.67;;;20.40;48.30;;;;;;4983031;28;20185;-63
2023/03/06 06:08:12;;;;;;;2.20;1.48;;;20.40;48.20;;;;;;4982357;28;20045;-63
2023/03/06 06:10:38;;;;;;;3.53;1.48;;;20.40;48.20;;;;;;4980356;28;20505;-63
2023/03/06 06:13:04;;;;;;;2.20;1.40;;;20.40;48.20;;;;;;4982503;28;20038;-64
2023/03/06 06:15:29;;;;;;;2.95;1.50;;;20.40;48.70;;;;;;4981623;28;20038;-64
2023/03/06 06:17:56;;;;;;;2.05;1.45;;;20.40;48.70;;;;;;4981194;28;20035;-64
2023/03/06 06:20:22;;;;;;;2.63;1.40;;;20.40;48.70;;;;;;4985010;28;20101;-63
2023/03/06 06:22:48;;;;;;;2.08;1.23;;;20.40;48.10;;;;;;4980762;28;20479;-64
2023/03/06 06:25:14;;;;;;;2.38;1.50;;;20.50;48.20;;;;;;4983972;28;20042;-64
2023/03/06 06:27:40;;;;;;;2.50;1.50;;;20.50;48.20;;;;;;4982156;28;20117;-64
2023/03/06 06:30:09;;;;;;;2.90;1.42;;;20.50;49.00;;;;;;4981902;28;20125;-64
2023/03/06 06:32:35;;;;;;;2.50;1.60;;;20.60;49.60;;;;;;4984397;28;20097;-65
2023/03/06 06:35:01;;;;;;;3.45;1.63;;;20.70;49.40;;;;;;4980662;28;20023;-64
2023/03/06 06:37:27;;;;;;;2.80;1.70;;;20.80;49.10;;;;;;4981140;28;20035;-64
2023/03/06 06:39:52;;;;;;;3.40;1.70;;;21.00;49.20;;;;;;4981243;28;20025;-64
2023/03/06 06:42:18;;;;;;;3.45;1.80;;;21.10;49.10;;;;;;4981819;28;20031;-64
2023/03/06 06:44:43;;;;;;;4.25;1.70;;;21.20;49.20;;;;;;4978546;28;20109;-64
2023/03/06 06:47:09;;;;;;;4.35;1.80;;;21.30;49.00;;;;;;4978729;28;20027;-64
2023/03/06 06:49:35;;;;;;;3.10;1.67;;;21.40;49.30;;;;;;4979341;28;20030;-65
2023/03/06 06:52:01;;;;;;;3.70;1.80;;;21.50;49.30;;;;;;4981879;28;20056;-63
2023/03/06 06:54:27;;;;;;;3.15;1.50;;;21.70;50.00;;;;;;4999673;28;20031;-64
2023/03/06 06:56:53;;;;;;;3.33;1.85;;;21.80;49.00;;;;;;4990864;28;20033;-64
2023/03/06 06:59:19;;;;;;;3.20;1.80;;;22.00;50.30;;;;;;4984334;28;20096;-65
2023/03/06 07:01:44;;;;;;;3.53;1.67;;;22.10;49.20;;;;;;4985367;28;20506;-65
2023/03/06 07:04:14;;;;;;;2.55;1.30;;;22.20;48.70;;;;;;4983752;28;20030;-64
2023/03/06 07:06:41;;;;;;;2.33;1.48;;;22.30;48.50;;;;;;4987905;28;20037;-64
2023/03/06 07:09:06;;;;;;;2.35;1.40;;;22.40;48.10;;;;;;4984721;28;20067;-66
2023/03/06 07:11:32;;;;;;;2.33;1.40;;;22.40;48.50;;;;;;4984219;28;20034;-65
2023/03/06 07:13:58;;;;;;;2.63;1.38;;;22.40;48.70;;;;;;4983499;28;20462;-64
2023/03/06 07:16:23;;;;;;;2.47;1.30;;;22.40;48.30;;;;;;4987760;28;20034;-64
2023/03/06 07:18:49;;;;;;;2.17;1.35;;;22.40;48.60;;;;;;4984914;28;20102;-64
2023/03/06 07:21:15;;;;;;;1.58;1.10;;;22.50;48.60;;;;;;4986148;28;20494;-64
2023/03/06 07:23:40;;;;;;;2.33;1.30;;;22.50;48.50;;;;;;4985830;28;20472;-65
2023/03/06 07:26:06;;;;;;;1.90;1.13;;;22.50;48.70;;;;;;4986545;28;20042;-64
2023/03/06 07:28:32;;;;;;;2.25;1.30;;;22.50;48.60;;;;;;4983783;28;20026;-65
2023/03/06 07:30:57;;;;;;;2.78;1.45;;;22.60;48.60;;;;;;4985877;28;20431;-64
2023/03/06 07:33:23;;;;;;;3.20;1.35;;;22.60;48.30;;;;;;4985130;28;20054;-65
2023/03/06 07:35:49;;;;;;;3.38;1.30;;;22.60;48.20;;;;;;4984737;28;20425;-65
2023/03/06 07:38:15;;;;;;;2.10;1.30;;;22.60;48.00;;;;;;4990994;28;20429;-64
2023/03/06 07:40:41;;;;;;;3.08;1.40;;;22.60;47.90;;;;;;4985159;28;20108;-65
2023/03/06 07:43:06;;;;;;;1.95;1.10;;;22.60;47.80;;;;;;4987135;28;20041;-65
2023/03/06 07:45:32;;;;;;;2.13;1.40;;;22.60;47.80;;;;;;4984622;28;20034;-64
2023/03/06 07:47:58;;;;;;;2.35;1.45;;;22.60;47.60;;;;;;4985455;28;20505;-65
2023/03/06 07:50:24;;;;;;;2.45;1.25;;;22.70;47.60;;;;;;4984663;28;20026;-64
2023/03/06 07:52:50;;;;;;;1.80;1.20;;;22.70;47.50;;;;;;4985529;28;20022;-65
2023/03/06 07:55:16;;;;;;;2.30;1.13;;;22.70;47.40;;;;;;4984926;28;20027;-65
2023/03/06 07:57:41;;;;;;;2.10;1.17;;;22.70;47.30;;;;;;4985636;28;20492;-64
2023/03/06 08:00:11;;;;;;;2.00;1.20;;;22.70;47.20;;;;;;4983239;28;20077;-65
2023/03/06 08:02:37;;;;;;;2.22;1.42;;;22.70;47.20;;;;;;4985079;28;20094;-64
2023/03/06 08:05:03;;;;;;;1.52;1.00;;;22.70;47.30;;;;;;4981981;28;20478;-64
2023/03/06 08:07:29;;;;;;;2.35;1.23;;;22.70;47.30;;;;;;4982426;28;20070;-64
2023/03/06 08:09:54;;;;;;;1.85;1.17;;;22.80;47.20;;;;;;5003646;28;20038;-65
2023/03/06 08:12:20;;;;;;;1.88;1.23;;;22.80;47.20;;;;;;4985758;28;20061;-65
2023/03/06 08:14:46;;;;;;;2.10;1.30;;;22.80;47.20;;;;;;4985124;28;20030;-64
2023/03/06 08:17:11;;;;;;;1.75;1.10;;;22.80;47.20;;;;;;4989044;28;20039;-65
2023/03/06 08:19:37;;;;;;;2.08;1.20;;;22.80;47.10;;;;;;4982590;28;20103;-65
2023/03/06 08:22:04;;;;;;;2.25;1.13;;;22.80;47.00;;;;;;4980558;28;20022;-64
2023/03/06 08:24:30;;;;;;;1.85;1.10;;;22.80;47.00;;;;;;4982195;28;20434;-65
2023/03/06 08:26:56;;;;;;;1.90;1.15;;;22.80;47.00;;;;;;4982630;28;20038;-65
2023/03/06 08:29:22;;;;;;;2.28;1.17;;;22.90;47.00;;;;;;4983629;28;20719;-64
2023/03/06 08:31:47;;;;;;;1.95;1.10;;;22.90;47.00;;;;;;4981826;28;20531;-64
2023/03/06 08:34:16;;;;;;;2.10;1.10;;;22.90;46.90;;;;;;4984330;28;20455;-64
2023/03/06 08:36:41;;;;;;;1.90;1.20;;;22.90;46.90;;;;;;4979099;28;20403;-65
2023/03/06 08:39:07;;;;;;;2.40;1.17;;;22.90;46.90;;;;;;4979793;28;20034;-64
2023/03/06 08:41:34;;;;;;;2.03;1.20;;;22.90;46.90;;;;;;4982146;28;20026;-65
2023/03/06 08:44:00;;;;;;;1.52;1.00;;;22.90;46.80;;;;;;4982855;28;20174;-65
2023/03/06 08:46:27;;;;;;;2.20;1.20;;;22.90;46.80;;;;;;4984076;28;20516;-64
2023/03/06 08:48:53;;;;;;;2.83;1.17;;;22.90;46.70;;;;;;4981157;28;20486;-65
2023/03/06 08:51:19;;;;;;;2.83;1.20;;;22.90;46.80;;;;;;4981358;28;20042;-65
2023/03/06 08:53:46;;;;;;;2.08;1.20;;;22.90;46.80;;;;;;4983918;28;20513;-65
2023/03/06 08:56:20;;;;;;;1.55;1.00;;;22.90;46.80;;;;;;4984675;28;20023;-65
2023/03/06 08:58:46;;;;;;;1.65;1.08;;;22.90;46.70;;;;;;4988616;28;20038;-65
2023/03/06 09:01:20;;;;;;;1.60;1.10;;;22.90;46.70;;;;;;4996625;28;20046;-65
2023/03/06 09:03:46;;;;;;;1.45;1.10;;;22.90;46.70;;;;;;4984885;28;20336;-64
2023/03/06 09:06:12;;;;;;;1.95;1.08;;;22.90;46.60;;;;;;4982758;28;20176;-65
2023/03/06 09:08:41;;;;;;;1.58;1.20;;;22.90;46.70;;;;;;4980863;28;20113;-65
2023/03/06 09:11:07;;;;;;;;;;;22.90;46.70;;;;;;4983565;28;20030;-64
2023/03/06 09:13:33;;;;;;;1.90;1.20;;;22.90;46.50;;;;;;4983000;28;19914;-65
2023/03/06 09:15:59;;;;;;;2.00;1.30;;;22.90;46.70;;;;;;4981039;28;20022;-65
2023/03/06 09:18:24;;;;;;;1.45;1.10;;;22.90;46.70;;;;;;4979499;28;20027;-65
2023/03/06 09:20:50;;;;;;;1.45;1.10;;;22.90;46.70;;;;;;4981430;28;20339;-65
2023/03/06 09:23:15;;;;;;;1.60;1.10;;;22.90;46.60;;;;;;4984917;28;20034;-65
2023/03/06 09:25:41;;;;;;;1.90;1.10;;;22.90;46.60;;;;;;4981879;28;20121;-65
2023/03/06 09:28:06;;;;;;;1.70;1.17;;;22.90;46.60;;;;;;4979853;28;20037;-64
2023/03/06 09:30:32;;;;;;;2.03;1.10;;;22.90;46.70;;;;;;4983129;28;20482;-65
2023/03/06 09:32:58;;;;;;;2.05;1.10;;;22.90;46.70;;;;;;4981629;28;20110;-64
2023/03/06 09:35:23;;;;;;;2.00;1.10;;;22.90;46.70;;;;;;4983345;28;20027;-65
2023/03/06 09:37:49;;;;;;;1.73;1.20;;;22.90;46.80;;;;;;4983649;28;20336;-65
2023/03/06 09:40:37;;;;;;;1.85;1.10;;;22.90;46.70;;;;;;4982486;28;20026;-64
2023/03/06 09:43:03;;;;;;;1.60;1.00;;;22.90;46.70;;;;;;4983040;28;20504;-65
2023/03/06 09:45:30;;;;;;;1.88;1.20;;;22.90;46.70;;;;;;4987823;28;20027;-65
2023/03/06 09:48:03;;;;;;;1.95;1.02;;;22.90;46.70;;;;;;4980763;28;20113;-65
2023/03/06 09:50:43;;;;;;;1.60;1.00;;;22.90;46.60;;;;;;4980465;28;20394;-64
2023/03/06 09:53:41;;;;;;;1.65;1.20;;;22.90;46.60;;;;;;4982943;28;20034;-64
2023/03/06 09:56:21;;;;;;;1.70;1.02;;;22.90;46.60;;;;;;4980292;28;20129;-65
2023/03/06 09:58:51;;;;;;;1.38;0.90;;;22.90;46.70;;;;;;4981432;28;20478;-65
2023/03/06 10:01:16;;;;;;;1.73;1.15;;;22.90;46.70;;;;;;4983394;28;20462;-65
2023/03/06 10:04:08;;;;;;;1.17;0.90;;;22.90;46.60;;;;;;4989208;28;20030;-65
2023/03/06 10:06:47;;;;;;;1.50;1.10;;;22.90;46.50;;;;;;4986773;28;20932;-65
2023/03/06 10:09:38;;;;;;;1.58;1.10;;;22.90;46.60;;;;;;4980830;28;20502;-65
2023/03/06 10:12:14;;;;;;;1.55;0.95;;;22.90;46.50;;;;;;4981815;28;20035;-64
2023/03/06 10:14:44;;;;;;;1.98;1.20;;;23.00;46.80;;;;;;4980729;28;20105;-64
2023/03/06 10:17:19;;;;;;;1.35;1.00;;;23.00;46.60;;;;;;4982372;28;20034;-65
2023/03/06 10:19:46;;;;;;;2.75;1.00;;;23.00;46.60;;;;;;4984226;28;20038;-65
2023/03/06 10:22:29;;;;;;;1.80;1.10;;;23.00;46.60;;;;;;4983688;28;20026;-65
2023/03/06 10:25:08;;;;;;;2.35;1.20;;;23.00;46.60;;;;;;4980613;28;20034;-65
2023/03/06 10:27:49;;;;;;;1.80;1.10;;;23.00;46.50;;;;;;4981906;28;20081;-65
2023/03/06 10:30:39;;;;;;;2.05;1.10;;;23.00;46.50;;;;;;4986401;28;20029;-64
2023/03/06 10:33:26;;;;;;;1.50;1.10;;;23.00;46.50;;;;;;4987309;28;20029;-65
2023/03/06 10:35:54;;;;;;;1.40;1.00;;;23.00;46.40;;;;;;4985992;28;20041;-65
2023/03/06 10:38:21;;;;;;;2.55;1.27;;;23.00;46.50;;;;;;4985051;28;20026;-65
2023/03/06 10:40:53;;;;;;;1.60;1.08;;;23.00;46.50;;;;;;4983819;28;20027;-65
2023/03/06 10:43:20;;;;;;;2.42;0.98;;;23.00;46.40;;;;;;5001673;28;20129;-65
2023/03/06 10:45:51;;;;;;;2.35;1.20;;;23.00;46.50;;;;;;4985863;28;20026;-65
2023/03/06 10:48:26;;;;;;;1.83;1.10;;;23.00;46.50;;;;;;4985827;28;20058;-64
2023/03/06 10:51:07;;;;;;;1.77;1.15;;;23.00;46.50;;;;;;4986794;28;20061;-65
2023/03/06 10:53:33;;;;;;;2.25;1.15;;;23.10;46.50;;;;;;4984655;28;20041;-65
2023/03/06 10:55:59;;;;;;;2.70;1.05;;;23.10;46.50;;;;;;4984534;28;20022;-65
2023/03/06 10:58:30;;;;;;;1.63;1.10;;;23.10;46.50;;;;;;4984218;28;20127;-65
2023/03/06 11:01:10;;;;;;;2.60;1.00;;;23.10;46.50;;;;;;4985269;28;20038;-65
2023/03/06 11:03:36;;;;;;;1.25;0.88;;;23.10;46.50;;;;;;4988122;28;20034;-65
2023/03/06 11:06:09;;;;;;;2.17;1.20;;;23.10;46.80;;;;;;4986163;28;20049;-65
2023/03/06 11:08:35;;;;;;;2.50;1.42;;;23.20;46.20;;;;;;4985076;28;20109;-65
2023/03/06 11:11:07;;;;;;;1.88;1.10;;;23.20;45.60;;;;;;4988493;28;20026;-66
2023/03/06 11:13:36;;;;;;;1.60;0.95;;;23.20;45.70;;;;;;4986200;28;20039;-66
2023/03/06 11:16:12;;;;;;;2.17;1.20;;;23.20;45.90;;;;;;4983263;28;20038;-66
2023/03/06 11:18:53;;;;;;;3.30;1.20;;;23.20;46.10;;;;;;4985072;28;20033;-66
2023/03/06 11:21:39;;;;;;;1.80;1.05;;;23.20;46.50;;;;;;4984649;28;20483;-64
2023/03/06 11:24:16;;;;;;;1.70;1.02;;;23.20;46.50;;;;;;4986563;28;20068;-65
2023/03/06 11:27:18;;;;;;;1.65;1.10;;;23.20;47.10;;;;;;4983711;28;20451;-66
2023/03/06 11:29:48;;;;;;;1.65;1.15;;;23.30;47.30;;;;;;4997942;28;20073;-65
2023/03/06 11:32:21;;;;;;;;;;;23.30;47.00;;;;;;4982342;28;20042;-65
2023/03/06 11:34:55;;;;;;;1.95;1.02;;;23.30;47.10;;;;;;4986368;28;19965;-65
2023/03/06 11:37:32;;;;;;;2.35;1.58;;;23.40;47.40;;;;;;4988945;28;20022;-65
2023/03/06 11:40:11;;;;;;;3.33;1.80;;;23.40;46.30;;;;;;4981379;28;20498;-65
2023/03/06 11:42:44;;;;;;;2.97;1.75;;;23.40;45.90;;;;;;4990708;28;20033;-65
2023/03/06 11:45:15;;;;;;;2.53;1.52;;;23.40;45.80;;;;;;4983116;28;20545;-65
2023/03/06 11:47:53;;;;;;;2.33;1.30;;;23.40;45.80;;;;;;4999596;28;20478;-65
2023/03/06 11:50:19;;;;;;;2.53;1.50;;;23.40;45.80;;;;;;4981603;28;20131;-64
2023/03/06 11:52:52;;;;;;;2.47;1.30;;;23.40;46.20;;;;;;4984366;28;20050;-65
2023/03/06 11:55:47;;;;;;;2.00;1.20;;;23.40;47.10;;;;;;4984252;28;20122;-63
2023/03/06 11:58:15;;;;;;;2.72;1.25;;;23.40;47.70;;;;;;4983383;28;20482;-65
2023/03/06 12:00:55;;;;;;;2.80;1.20;;;23.40;46.80;;;;;;4982552;28;20362;-65
2023/03/06 12:03:41;;;;;;;2.63;1.20;;;23.40;46.80;;;;;;4984031;28;20061;-65
2023/03/06 12:06:31;;;;;;;1.85;0.93;;;23.40;46.60;;;;;;4982534;28;20023;-65
2023/03/06 12:09:18;;;;;;;1.80;1.10;;;23.40;46.50;;;;;;4986191;28;20385;-65
2023/03/06 12:11:49;;;;;;;1.75;1.08;;;23.40;46.60;;;;;;4985138;28;20060;-64
2023/03/06 12:14:31;;;;;;;2.17;1.10;;;23.40;46.60;;;;;;4983438;28;20031;-64
2023/03/06 12:17:01;;;;;;;2.10;1.40;;;23.40;46.60;;;;;;4983456;28;20543;-64
2023/03/06 12:19:27;;;;;;;2.00;1.08;;;23.40;47.20;;;;;;4981632;28;20415;-64
2023/03/06 12:22:23;;;;;;;1.73;1.10;;;23.40;46.80;;;;;;4983637;28;20066;-65
2023/03/06 12:25:18;;;;;;;2.20;1.30;;;23.50;46.90;;;;;;4985459;28;20031;-64
2023/03/06 12:27:58;;;;;;;2.05;1.05;;;23.50;46.80;;;;;;4983651;28;20471;-65
2023/03/06 12:30:24;;;;;;;1.92;1.10;;;23.40;46.70;;;;;;4985726;28;20054;-65
2023/03/06 12:33:02;;;;;;;1.40;1.00;;;23.50;46.70;;;;;;4984358;28;20073;-64
2023/03/06 12:35:56;;;;;;;1.88;1.02;;;23.50;46.70;;;;;;4983647;28;20018;-64
2023/03/06 12:38:33;;;;;;;2.05;1.20;;;23.50;46.70;;;;;;4982753;28;20026;-65
2023/03/06 12:41:19;;;;;;;2.10;1.20;;;23.50;46.60;;;;;;4984293;28;20062;-65
2023/03/06 12:44:12;;;;;;;1.77;1.00;;;23.50;46.50;;;;;;4975567;28;20044;-66
2023/03/06 12:46:43;;;;;;;1.83;0.95;;;23.50;46.50;;;;;;4982765;28;20054;-64
2023/03/06 12:49:12;;;;;;;2.25;1.08;;;23.50;47.00;;;;;;4981942;28;20026;-65
2023/03/06 12:51:39;;;;;;;2.60;1.00;;;23.50;46.70;;;;;;4982478;28;20105;-65
2023/03/06 12:54:05;;;;;;;2.40;1.10;;;23.50;46.80;;;;;;4983318;28;20085;-65
2023/03/06 12:56:33;;;;;;;2.45;1.10;;;23.50;46.60;;;;;;4984780;28;20030;-64